createdAt,value
2022-10-20T00:00:10.937Z,101826.56
2022-10-20T00:02:39.589Z,101810.78
2022-10-20T00:05:09.348Z,101795.75
2022-10-20T00:07:37.624Z,101769.66
2022-10-20T00:10:06.929Z,101815.88
2022-10-20T00:12:36.864Z,101750.44
2022-10-20T00:15:06.317Z,101793.03
2022-10-20T00:17:34.596Z,101794.09
2022-10-20T00:20:02.880Z,101737.28
2022-10-20T00:22:33.198Z,101795.78
2022-10-20T00:25:01.633Z,101796.81
2022-10-20T00:27:30.016Z,101790.63
2022-10-20T00:29:59.713Z,101752.16
2022-10-20T00:32:29.672Z,101760.28
2022-10-20T00:34:58.298Z,101768.22
2022-10-20T00:37:26.565Z,101804.41
2022-10-20T00:39:54.916Z,101803.53
2022-10-20T00:42:23.245Z,101806.38
2022-10-20T00:44:56.778Z,101800.38
2022-10-20T00:47:38.850Z,101757.81
2022-10-20T00:50:13.656Z,101724.22
2022-10-20T00:52:45.637Z,101723.59
2022-10-20T00:55:18.357Z,101754.69
2022-10-20T00:57:52.269Z,101737.16
2022-10-20T01:00:20.722Z,101733.75
2022-10-20T01:02:51.999Z,101729.03
2022-10-20T01:05:21.055Z,101740.66
2022-10-20T01:07:49.473Z,101729.97
2022-10-20T01:10:18.349Z,101765.44
2022-10-20T01:12:57.390Z,101712.34
2022-10-20T01:15:34.348Z,101723.19
2022-10-20T01:18:13.292Z,101726.88
2022-10-20T01:21:19.743Z,101732.78
2022-10-20T01:24:33.560Z,101731.84
2022-10-20T01:27:26.544Z,101717.59
2022-10-20T01:30:01.652Z,101715.56
2022-10-20T01:32:43.640Z,101720.03
2022-10-20T01:35:19.052Z,101698.78
2022-10-20T01:37:54.250Z,101671.81
2022-10-20T01:40:31.154Z,101706.69
2022-10-20T01:43:05.911Z,101698.81
2022-10-20T01:45:37.976Z,101683.78
2022-10-20T01:48:08.838Z,101690.09
2022-10-20T01:50:38.656Z,101680.28
2022-10-20T01:53:07.562Z,101654.72
2022-10-20T01:55:36.951Z,101649.41
2022-10-20T01:58:36.632Z,101653.00
2022-10-20T02:01:15.497Z,101684.13
2022-10-20T02:03:53.599Z,101676.16
2022-10-20T02:06:36.569Z,101672.72
2022-10-20T02:09:08.811Z,101628.19
2022-10-20T02:11:45.676Z,101684.09
2022-10-20T02:14:19.338Z,101672.81
2022-10-20T02:16:54.090Z,101619.91
2022-10-20T02:19:26.656Z,101617.44
2022-10-20T02:21:57.725Z,101635.44
2022-10-20T02:24:30.565Z,101572.72
2022-10-20T02:27:02.803Z,101596.41
2022-10-20T02:29:38.141Z,101605.38
2022-10-20T02:32:07.328Z,101611.91
2022-10-20T02:34:39.587Z,101612.84
2022-10-20T02:37:10.773Z,101589.00
2022-10-20T02:39:39.187Z,101599.84
2022-10-20T02:42:07.876Z,101598.13
2022-10-20T02:44:37.530Z,101598.13
2022-10-20T02:47:06.241Z,101593.13
2022-10-20T02:49:34.582Z,101541.69
2022-10-20T02:52:02.863Z,101544.50
2022-10-20T02:54:31.235Z,101572.09
2022-10-20T02:56:59.717Z,101553.53
2022-10-20T02:59:28.101Z,101580.22
2022-10-20T03:01:57.961Z,101554.91
2022-10-20T03:04:26.712Z,101547.91
2022-10-20T03:06:55.076Z,101552.72
2022-10-20T03:09:23.361Z,101545.81
2022-10-20T03:11:51.792Z,101547.53
2022-10-20T03:14:20.088Z,101522.09
2022-10-20T03:16:48.393Z,101504.44
2022-10-20T03:19:18.361Z,101541.00
2022-10-20T03:21:48.884Z,101554.09
2022-10-20T03:24:18.723Z,101567.22
2022-10-20T03:26:47.002Z,101524.91
2022-10-20T03:29:15.345Z,101546.31
2022-10-20T03:31:43.709Z,101473.81
2022-10-20T03:34:12.775Z,101526.22
2022-10-20T03:36:42.808Z,101469.06
2022-10-20T03:39:11.072Z,101514.34
2022-10-20T03:41:39.433Z,101466.59
2022-10-20T03:44:07.725Z,101503.81
2022-10-20T03:46:36.021Z,101496.78
2022-10-20T03:49:04.495Z,101513.03
2022-10-20T03:51:32.871Z,101505.19
2022-10-20T03:54:02.797Z,101508.88
2022-10-20T03:56:31.102Z,101507.94
2022-10-20T03:59:00.657Z,101506.28
2022-10-20T04:01:33.403Z,101502.03
2022-10-20T04:04:01.794Z,101496.09
2022-10-20T04:06:30.450Z,101495.22
2022-10-20T04:08:59.103Z,101493.66
2022-10-20T04:11:28.970Z,101465.31
2022-10-20T04:13:57.362Z,101465.53
2022-10-20T04:16:26.130Z,101461.09
2022-10-20T04:18:55.131Z,101482.44
2022-10-20T04:21:23.589Z,101467.41
2022-10-20T04:23:51.984Z,101450.63
2022-10-20T04:26:20.243Z,101465.84
2022-10-20T04:28:49.865Z,101484.38
2022-10-20T04:31:18.049Z,101483.66
2022-10-20T04:33:46.318Z,101479.47
2022-10-20T04:36:15.341Z,101469.53
2022-10-20T04:38:43.870Z,101492.56
2022-10-20T04:41:12.421Z,101449.09
2022-10-20T04:43:40.718Z,101490.75
2022-10-20T04:46:11.692Z,101481.25
2022-10-20T04:48:44.285Z,101461.81
2022-10-20T04:51:15.928Z,101470.00
2022-10-20T04:53:44.771Z,101446.28
2022-10-20T04:56:18.367Z,101420.75
2022-10-20T04:58:49.446Z,101393.41
2022-10-20T05:01:19.797Z,101446.41
2022-10-20T05:03:48.527Z,101405.75
2022-10-20T05:06:19.262Z,101451.72
2022-10-20T05:08:51.874Z,101461.25
2022-10-20T05:11:22.941Z,101448.16
2022-10-20T05:13:51.870Z,101429.00
2022-10-20T05:16:22.262Z,101391.97
2022-10-20T05:18:52.178Z,101406.00
2022-10-20T05:21:23.417Z,101387.63
2022-10-20T05:23:57.478Z,101377.09
2022-10-20T05:26:28.532Z,101364.00
2022-10-20T05:28:56.871Z,101404.47
2022-10-20T05:31:26.869Z,101405.31
2022-10-20T05:33:57.917Z,101404.41
2022-10-20T05:36:28.365Z,101413.91
2022-10-20T05:38:57.815Z,101380.38
2022-10-20T05:41:31.153Z,101394.69
2022-10-20T05:44:04.496Z,101391.91
2022-10-20T05:46:41.609Z,101387.47
2022-10-20T05:49:15.636Z,101383.91
2022-10-20T05:51:45.302Z,101413.84
2022-10-20T05:54:14.866Z,101377.53
2022-10-20T05:56:43.301Z,101402.31
2022-10-20T05:59:12.149Z,101380.25
2022-10-20T06:01:48.244Z,101387.19
2022-10-20T06:04:19.568Z,101386.25
2022-10-20T06:06:48.987Z,101386.47
2022-10-20T06:09:18.372Z,101359.13
2022-10-20T06:11:47.055Z,101356.44
2022-10-20T06:14:15.400Z,101323.81
2022-10-20T06:16:46.124Z,101382.25
2022-10-20T06:19:14.537Z,101380.56
2022-10-20T06:24:16.579Z,101359.31
2022-10-20T06:26:46.584Z,101366.38
2022-10-20T06:29:18.941Z,101395.69
2022-10-20T06:31:51.411Z,101364.78
2022-10-20T06:34:22.877Z,101363.97
2022-10-20T06:36:51.835Z,101325.28
2022-10-20T06:39:22.667Z,101390.69
2022-10-20T06:41:52.915Z,101358.16
2022-10-20T06:44:23.654Z,101321.22
2022-10-20T06:46:54.526Z,101345.09
2022-10-20T06:49:23.372Z,101336.31
2022-10-20T06:51:51.883Z,101371.88
2022-10-20T06:54:20.839Z,101348.94
2022-10-20T06:56:49.345Z,101351.66
2022-10-20T06:59:17.676Z,101346.47
2022-10-20T07:01:46.073Z,101368.69
2022-10-20T07:04:17.894Z,101324.56
2022-10-20T07:06:47.723Z,101368.94
2022-10-20T07:09:18.861Z,101368.88
2022-10-20T07:11:51.329Z,101350.56
2022-10-20T07:14:19.967Z,101362.97
2022-10-20T07:16:48.722Z,101377.94
2022-10-20T07:19:18.454Z,101375.38
2022-10-20T07:21:46.736Z,101373.69
2022-10-20T07:24:16.622Z,101379.06
2022-10-20T07:26:45.038Z,101295.34
2022-10-20T07:29:14.686Z,101334.97
2022-10-20T07:31:45.292Z,101342.16
2022-10-20T07:34:27.167Z,101366.19
2022-10-20T07:36:57.603Z,101269.13
2022-10-20T07:39:27.086Z,101368.91
2022-10-20T07:41:55.564Z,101374.22
2022-10-20T07:44:24.398Z,101376.94
2022-10-20T07:46:52.819Z,101376.19
2022-10-20T07:49:43.444Z,101338.22
2022-10-20T07:52:11.067Z,101343.69
2022-10-20T07:54:39.414Z,101349.09
2022-10-20T07:57:07.708Z,101350.00
2022-10-20T07:59:36.041Z,101321.03
2022-10-20T08:02:04.756Z,101368.72
2022-10-20T08:04:34.666Z,101344.94
2022-10-20T08:07:03.459Z,101357.41
2022-10-20T08:09:33.685Z,101354.78
2022-10-20T08:12:02.363Z,101358.34
2022-10-20T08:14:33.530Z,101305.56
2022-10-20T08:17:02.504Z,101346.13
2022-10-20T08:22:20.049Z,101316.25
2022-10-20T08:24:49.016Z,101341.84
2022-10-20T08:27:17.346Z,101344.56
2022-10-20T08:29:55.005Z,101344.59
2022-10-20T08:32:34.974Z,101345.56
2022-10-20T08:35:03.659Z,101342.97
2022-10-20T08:37:34.195Z,101328.00
2022-10-20T08:40:02.924Z,101331.53
2022-10-20T08:42:34.098Z,101335.06
2022-10-20T08:45:02.654Z,101291.00
2022-10-20T08:47:36.567Z,101324.44
2022-10-20T08:50:09.843Z,101316.50
2022-10-20T08:52:43.110Z,101278.63
2022-10-20T08:57:50.448Z,101275.13
2022-10-20T09:00:24.445Z,101243.41
2022-10-20T09:02:53.342Z,101270.63
2022-10-20T09:05:27.898Z,101288.97
2022-10-20T09:07:58.613Z,101255.50
2022-10-20T09:10:36.149Z,101288.84
2022-10-20T09:13:17.038Z,101276.56
2022-10-20T09:15:45.705Z,101301.09
2022-10-20T09:18:16.565Z,101294.91
2022-10-20T09:20:52.196Z,101263.22
2022-10-20T09:23:40.636Z,101250.88
2022-10-20T09:26:24.970Z,101260.44
2022-10-20T09:29:14.589Z,101226.19
2022-10-20T09:31:45.785Z,101242.91
2022-10-20T09:34:26.851Z,101245.59
2022-10-20T09:37:00.426Z,101276.44
2022-10-20T09:39:34.253Z,101285.19
2022-10-20T09:42:07.243Z,101269.38
2022-10-20T09:44:48.451Z,101277.19
2022-10-20T09:47:18.055Z,101251.81
2022-10-20T09:49:47.899Z,101225.38
2022-10-20T09:52:23.598Z,101298.50
2022-10-20T09:54:58.393Z,101266.03
2022-10-20T09:57:27.242Z,101286.38
2022-10-20T10:00:01.297Z,101281.13
2022-10-20T10:02:37.462Z,101276.78
2022-10-20T10:05:20.171Z,101289.19
2022-10-20T10:08:00.584Z,101249.59
2022-10-20T10:10:32.623Z,101281.31
2022-10-20T10:13:04.012Z,101289.19
2022-10-20T10:15:35.484Z,101232.94
2022-10-20T10:18:15.001Z,101292.75
2022-10-20T10:20:43.504Z,101282.16
2022-10-20T10:23:24.448Z,101247.84
2022-10-20T10:25:59.214Z,101241.66
2022-10-20T10:28:37.535Z,101243.41
2022-10-20T10:31:27.343Z,101240.75
2022-10-20T10:34:23.383Z,101204.72
2022-10-20T10:36:51.760Z,101234.63
2022-10-20T10:39:20.050Z,101206.50
2022-10-20T10:42:03.111Z,101201.16
2022-10-20T10:44:49.356Z,101204.69
2022-10-20T10:47:43.546Z,101196.75
2022-10-20T10:50:31.828Z,101198.50
2022-10-20T10:53:16.158Z,101224.09
2022-10-20T10:56:01.786Z,101159.03
2022-10-20T10:58:47.651Z,101207.31
2022-10-20T11:01:56.774Z,101223.22
2022-10-20T11:04:59.581Z,101221.47
2022-10-20T11:07:38.831Z,101223.19
2022-10-20T11:10:15.449Z,101206.47
2022-10-20T11:13:12.826Z,101186.22
2022-10-20T11:16:00.215Z,101209.09
2022-10-20T11:19:13.332Z,101198.56
2022-10-20T11:21:57.481Z,101172.16
2022-10-20T11:24:43.973Z,101216.16
2022-10-20T11:27:16.790Z,101205.63
2022-10-20T11:29:48.827Z,101212.53
2022-10-20T11:32:30.525Z,101213.38
2022-10-20T11:35:06.693Z,101178.19
2022-10-20T11:37:43.666Z,101209.78
2022-10-20T11:40:23.450Z,101194.84
2022-10-20T11:43:02.026Z,101229.91
2022-10-20T11:45:43.417Z,101196.53
2022-10-20T11:49:00.298Z,101202.72
2022-10-20T11:52:28.725Z,101220.38
2022-10-20T11:55:26.647Z,101221.31
2022-10-20T11:58:28.885Z,101212.53
2022-10-20T12:01:21.911Z,101197.59
2022-10-20T12:04:39.364Z,101214.28
2022-10-20T12:07:37.837Z,101196.66
2022-10-20T12:10:34.638Z,101208.00
2022-10-20T12:13:18.364Z,101194.59
2022-10-20T12:15:49.175Z,101203.97
2022-10-20T12:18:31.763Z,101177.47
2022-10-20T12:21:04.074Z,101193.88
2022-10-20T12:24:05.667Z,101193.78
2022-10-20T12:27:27.797Z,101168.25
2022-10-20T12:30:02.872Z,101182.03
2022-10-20T12:33:00.803Z,101152.03
2022-10-20T12:36:14.770Z,101185.16
2022-10-20T12:38:44.145Z,101185.06
2022-10-20T12:41:27.335Z,101176.03
2022-10-20T12:44:00.639Z,101165.41
2022-10-20T12:46:32.505Z,101155.56
2022-10-20T12:49:07.961Z,101164.81
2022-10-20T12:51:51.190Z,101162.16
2022-10-20T12:54:26.101Z,101139.97
2022-10-20T12:57:00.844Z,101162.59
2022-10-20T12:59:40.310Z,101158.84
2022-10-20T13:02:34.447Z,101135.28
2022-10-20T13:05:27.988Z,101143.91
2022-10-20T13:08:29.809Z,101147.66
2022-10-20T13:11:32.386Z,101138.53
2022-10-20T13:14:26.049Z,101135.91
2022-10-20T13:17:05.071Z,101139.25
2022-10-20T13:19:44.523Z,101142.25
2022-10-20T13:22:39.525Z,101115.81
2022-10-20T13:25:22.178Z,101125.25
2022-10-20T13:27:51.349Z,101116.84
2022-10-20T13:30:23.732Z,101123.59
2022-10-20T13:36:02.352Z,101102.47
2022-10-20T13:38:42.282Z,101118.22
2022-10-20T13:41:19.746Z,101104.34
2022-10-20T13:43:58.224Z,101116.28
2022-10-20T13:46:50.283Z,101088.25
2022-10-20T13:49:52.787Z,101087.94
2022-10-20T13:52:22.578Z,101101.38
2022-10-20T13:54:53.225Z,101071.06
2022-10-20T13:57:32.239Z,101085.69
2022-10-20T14:00:02.817Z,101076.72
2022-10-20T14:02:36.997Z,101072.50
2022-10-20T14:05:09.962Z,101064.19
2022-10-20T14:07:40.153Z,101087.25
2022-10-20T14:10:22.583Z,101082.00
2022-10-20T14:12:53.685Z,101055.75
2022-10-20T14:15:29.663Z,101071.44
2022-10-20T14:18:02.674Z,101059.75
2022-10-20T14:20:33.820Z,101049.34
2022-10-20T14:23:04.664Z,101078.09
2022-10-20T14:25:34.932Z,101042.06
2022-10-20T14:28:06.757Z,101050.53
2022-10-20T14:30:40.074Z,101068.94
2022-10-20T14:33:16.000Z,101078.44
2022-10-20T14:35:47.185Z,101085.31
2022-10-20T14:38:20.151Z,101074.69
2022-10-20T14:40:55.466Z,101054.91
2022-10-20T14:43:35.146Z,101071.00
2022-10-20T14:46:05.553Z,101070.38
2022-10-20T14:48:38.711Z,101042.19
2022-10-20T14:51:48.178Z,101064.53
2022-10-20T14:54:27.734Z,101051.59
2022-10-20T14:56:59.612Z,101058.66
2022-10-20T14:59:32.563Z,101066.63
2022-10-20T15:02:09.277Z,101040.31
2022-10-20T15:04:38.656Z,101058.88
2022-10-20T15:07:14.380Z,101054.53
2022-10-20T15:09:47.293Z,101029.88
2022-10-20T15:12:19.621Z,101052.03
2022-10-20T15:14:52.549Z,101046.13
2022-10-20T15:17:41.483Z,101027.59
2022-10-20T15:20:37.627Z,101036.25
2022-10-20T15:23:10.617Z,101061.09
2022-10-20T15:25:47.565Z,101033.97
2022-10-20T15:28:36.890Z,101059.28
2022-10-20T15:31:09.338Z,101044.41
2022-10-20T15:33:37.720Z,101078.78
2022-10-20T15:36:15.191Z,101077.19
2022-10-20T15:38:43.843Z,101060.44
2022-10-20T15:41:15.257Z,101054.19
2022-10-20T15:43:43.577Z,101058.09
2022-10-20T15:46:16.613Z,101056.16
2022-10-20T15:48:45.417Z,101037.94
2022-10-20T15:51:19.032Z,101031.69
2022-10-20T15:53:49.452Z,101059.03
2022-10-20T15:56:17.883Z,101043.38
2022-10-20T15:58:46.737Z,101067.81
2022-10-20T16:01:17.883Z,101017.03
2022-10-20T16:03:47.918Z,101049.44
2022-10-20T16:06:19.297Z,101058.41
2022-10-20T16:08:49.686Z,101031.22
2022-10-20T16:11:21.752Z,101024.34
2022-10-20T16:13:50.441Z,101035.72
2022-10-20T16:16:21.139Z,101041.09
2022-10-20T16:18:49.980Z,101022.75
2022-10-20T16:21:18.349Z,101056.09
2022-10-20T16:23:47.456Z,101062.34
2022-10-20T16:26:16.189Z,101045.03
2022-10-20T16:28:44.689Z,101054.69
2022-10-20T16:31:15.944Z,101023.16
2022-10-20T16:33:46.096Z,101032.06
2022-10-20T16:36:17.161Z,101026.88
2022-10-20T16:38:46.193Z,101047.97
2022-10-20T16:41:18.229Z,101034.06
2022-10-20T16:43:47.710Z,101062.28
2022-10-20T16:46:17.064Z,101064.06
2022-10-20T16:48:48.160Z,101074.72
2022-10-20T16:51:17.506Z,101073.88
2022-10-20T16:53:45.933Z,101030.06
2022-10-20T16:56:16.906Z,101037.19
2022-10-20T16:58:48.706Z,101047.66
2022-10-20T17:01:20.118Z,101034.56
2022-10-20T17:03:52.707Z,101058.19
2022-10-20T17:06:23.300Z,101055.63
2022-10-20T17:08:52.369Z,101039.78
2022-10-20T17:11:23.719Z,101054.78
2022-10-20T17:13:52.674Z,101023.25
2022-10-20T17:16:27.788Z,101051.41
2022-10-20T17:19:00.690Z,101033.84
2022-10-20T17:21:30.888Z,101042.59
2022-10-20T17:23:59.602Z,101036.50
2022-10-20T17:26:31.522Z,101005.03
2022-10-20T17:29:02.158Z,101031.22
2022-10-20T17:31:31.014Z,101016.44
2022-10-20T17:34:01.246Z,101034.84
2022-10-20T17:36:33.618Z,101009.34
2022-10-20T17:39:05.616Z,101031.28
2022-10-20T17:41:34.579Z,100991.00
2022-10-20T17:44:06.319Z,101032.28
2022-10-20T17:46:35.067Z,101025.19
2022-10-20T17:49:05.125Z,101020.81
2022-10-20T17:51:34.938Z,101012.09
2022-10-20T17:54:04.275Z,100998.13
2022-10-20T17:56:36.574Z,101006.00
2022-10-20T17:59:07.743Z,101017.50
2022-10-20T18:01:39.059Z,101000.00
2022-10-20T18:04:11.660Z,101031.63
2022-10-20T18:06:41.271Z,101014.91
2022-10-20T18:09:11.895Z,100996.53
2022-10-20T18:11:43.446Z,101022.00
2022-10-20T18:14:11.914Z,101016.78
2022-10-20T18:16:41.047Z,100943.19
2022-10-20T18:19:19.850Z,100973.03
2022-10-20T18:21:48.933Z,101016.09
2022-10-20T18:24:19.225Z,100959.91
2022-10-20T18:26:48.028Z,101008.97
2022-10-20T18:29:17.632Z,101012.47
2022-10-20T18:31:48.264Z,100982.69
2022-10-20T18:34:21.511Z,100995.84
2022-10-20T18:36:50.813Z,100963.38
2022-10-20T18:39:19.832Z,100997.66
2022-10-20T18:41:52.137Z,101018.72
2022-10-20T18:44:21.443Z,100992.38
2022-10-20T18:46:51.217Z,100998.53
2022-10-20T18:49:21.529Z,101013.47
2022-10-20T18:51:50.056Z,101016.03
2022-10-20T18:54:19.718Z,100993.19
2022-10-20T18:56:48.264Z,101016.03
2022-10-20T18:59:17.937Z,101012.47
2022-10-20T19:01:48.278Z,101020.34
2022-10-20T19:04:16.745Z,101019.41
2022-10-20T19:06:48.498Z,101015.09
2022-10-20T19:09:19.616Z,101015.19
2022-10-20T19:14:18.852Z,101002.00
2022-10-20T19:16:48.692Z,100993.13
2022-10-20T19:19:17.731Z,100983.44
2022-10-20T19:21:47.413Z,100981.72
2022-10-20T19:24:18.472Z,100952.75
2022-10-20T19:26:57.174Z,100983.53
2022-10-20T19:29:36.997Z,100958.09
2022-10-20T19:32:07.478Z,100966.03
2022-10-20T19:34:39.074Z,100956.38
2022-10-20T19:37:09.772Z,100927.38
2022-10-20T19:39:41.617Z,100924.75
2022-10-20T19:42:11.191Z,100942.25
2022-10-20T19:44:40.270Z,100916.00
2022-10-20T19:47:09.008Z,100948.47
2022-10-20T19:49:38.441Z,100938.81
2022-10-20T19:52:08.865Z,100909.00
2022-10-20T19:54:37.162Z,100923.91
2022-10-20T19:57:06.286Z,100899.41
2022-10-20T19:59:34.670Z,100898.50
2022-10-20T20:02:03.221Z,100930.06
2022-10-20T20:04:31.628Z,100924.75
2022-10-20T20:07:02.389Z,100926.59
2022-10-20T20:09:32.673Z,100891.59
2022-10-20T20:12:00.965Z,100902.09
2022-10-20T20:14:29.255Z,100916.13
2022-10-20T20:16:57.639Z,100938.94
2022-10-20T20:19:25.973Z,100942.47
2022-10-20T20:21:54.369Z,100941.59
2022-10-20T20:24:22.693Z,100940.69
2022-10-20T20:26:52.362Z,100940.69
2022-10-20T20:29:20.675Z,100954.78
2022-10-20T20:31:49.056Z,100900.38
2022-10-20T20:34:17.863Z,100942.47
2022-10-20T20:36:46.187Z,100945.13
2022-10-20T20:39:14.595Z,100909.19
2022-10-20T20:41:43.210Z,100946.88
2022-10-20T20:44:13.024Z,100957.47
2022-10-20T20:46:41.394Z,100956.63
2022-10-20T20:49:09.760Z,100923.28
2022-10-20T20:51:38.141Z,100957.53
2022-10-20T20:54:06.547Z,100933.84
2022-10-20T20:56:35.092Z,100958.38
2022-10-20T20:59:03.558Z,100962.78
2022-10-20T21:01:33.914Z,100929.50
2022-10-20T21:04:10.115Z,100938.22
2022-10-20T21:07:01.103Z,100916.28
2022-10-20T21:09:29.811Z,100966.34
2022-10-20T21:11:58.234Z,100972.50
2022-10-20T21:14:26.761Z,100947.06
2022-10-20T21:16:56.821Z,100960.19
2022-10-20T21:19:25.074Z,100950.47
2022-10-20T21:21:57.378Z,100931.19
2022-10-20T21:24:27.261Z,100913.69
2022-10-20T21:26:56.771Z,100952.25
2022-10-20T21:29:25.264Z,100947.84
2022-10-20T21:31:56.113Z,100935.63
2022-10-20T21:34:26.634Z,100946.13
2022-10-20T21:36:54.894Z,100954.94
2022-10-20T21:39:23.284Z,100947.88
2022-10-20T21:41:51.562Z,100953.13
2022-10-20T21:44:20.001Z,100932.06
2022-10-20T21:46:50.087Z,100954.94
2022-10-20T21:49:25.155Z,100922.44
2022-10-20T21:51:56.911Z,100947.00
2022-10-20T21:54:28.228Z,100913.63
2022-10-20T21:56:57.301Z,100946.00
2022-10-20T21:59:27.562Z,100953.91
2022-10-20T22:01:59.799Z,100873.19
2022-10-20T22:04:31.769Z,100899.47
2022-10-20T22:07:00.495Z,100947.72
2022-10-20T22:09:29.249Z,100920.56
2022-10-20T22:11:59.543Z,100913.47
2022-10-20T22:14:29.659Z,100950.31
2022-10-20T22:16:58.119Z,100925.78
2022-10-20T22:19:28.242Z,100952.88
2022-10-20T22:21:59.446Z,100921.31
2022-10-20T22:24:30.615Z,100953.72
2022-10-20T22:26:59.400Z,100928.19
2022-10-20T22:29:30.135Z,100951.88
2022-10-20T22:31:58.615Z,100921.19
2022-10-20T22:34:27.069Z,100949.19
2022-10-20T22:36:55.445Z,100939.56
2022-10-20T22:39:25.145Z,100944.75
2022-10-20T22:41:53.484Z,100939.50
2022-10-20T22:44:21.788Z,100924.47
2022-10-20T22:46:50.071Z,100928.81
2022-10-20T22:49:18.378Z,100928.81
2022-10-20T22:51:46.730Z,100909.53
2022-10-20T22:54:14.981Z,100924.38
2022-10-20T22:56:44.694Z,100918.16
2022-10-20T22:59:13.055Z,100925.16
2022-10-20T23:01:41.390Z,100899.69
2022-10-20T23:04:09.666Z,100918.06
2022-10-20T23:06:38.050Z,100910.16
2022-10-20T23:09:06.427Z,100891.88
2022-10-20T23:11:35.326Z,100891.81
2022-10-20T23:14:04.956Z,100891.88
2022-10-20T23:16:33.204Z,100910.34
2022-10-20T23:19:01.505Z,100913.91
2022-10-20T23:21:29.755Z,100923.69
2022-10-20T23:23:58.043Z,100899.19
2022-10-20T23:26:26.771Z,100869.44
2022-10-20T23:28:55.036Z,100914.13
2022-10-20T23:31:24.994Z,100918.53
2022-10-20T23:33:56.909Z,100908.94
2022-10-20T23:36:25.321Z,100924.78
2022-10-20T23:38:54.027Z,100878.28
2022-10-20T23:41:22.386Z,100909.88
2022-10-20T23:43:50.860Z,100916.81
2022-10-20T23:46:19.157Z,100890.41
2022-10-20T23:48:48.703Z,100915.03
2022-10-20T23:51:17.172Z,100882.59
2022-10-20T23:53:45.430Z,100909.66
2022-10-20T23:56:13.761Z,100896.56
2022-10-20T23:58:42.141Z,100905.31
